Time;durP1;ratioP1;P1;durP2;ratioP2;P2;SDS_P1;SDS_P2;PMS_P1;PMS_P2;Temp;Humidity;BMP_temperature;BMP_pressure;BME280_temperature;BME280_humidity;BME280_pressure;Samples;Min_cycle;Max_cycle;Signal;HPM_P1;HPM_P2
2023/12/16 00:02:21;;;;;;;0.50;0.50;;;;;;;5.31;100.00;100509.03;5072196;28;20660;-67
2023/12/16 00:04:48;;;;;;;0.60;0.60;;;;;;;5.28;100.00;100521.72;5069033;28;20247;-68
2023/12/16 00:07:14;;;;;;;0.70;0.70;;;;;;;5.16;100.00;100531.78;5070121;28;20188;-68
2023/12/16 00:09:42;;;;;;;0.77;0.77;;;;;;;5.15;100.00;100532.59;5069977;28;20257;-68
2023/12/16 00:12:09;;;;;;;0.77;0.77;;;;;;;4.96;100.00;100526.47;5070181;28;20207;-67
2023/12/16 00:14:37;;;;;;;0.63;0.63;;;;;;;4.92;100.00;100545.06;5068944;28;20288;-67
2023/12/16 00:17:04;;;;;;;0.50;0.50;;;;;;;4.81;100.00;100544.13;5069338;28;20216;-67
2023/12/16 00:19:31;;;;;;;0.50;0.50;;;;;;;4.61;100.00;100551.50;5071144;28;20204;-68
2023/12/16 00:21:57;;;;;;;0.70;0.70;;;;;;;4.58;100.00;100546.38;5073396;28;20196;-68
2023/12/16 00:24:25;;;;;;;0.50;0.50;;;;;;;4.54;100.00;100548.84;5074073;28;20208;-68
2023/12/16 00:26:54;;;;;;;0.60;0.60;;;;;;;4.47;100.00;100552.13;5074045;28;20668;-69
2023/12/16 00:29:20;;;;;;;0.60;0.60;;;;;;;4.51;100.00;100554.75;5074011;28;20290;-68
2023/12/16 00:31:47;;;;;;;0.53;0.53;;;;;;;4.51;100.00;100558.97;5073849;28;20286;-68
2023/12/16 00:34:14;;;;;;;0.50;0.50;;;;;;;4.54;100.00;100561.56;5074144;28;20192;-68
2023/12/16 00:36:41;;;;;;;0.50;0.50;;;;;;;4.53;100.00;100559.84;5075355;28;20269;-68
2023/12/16 00:39:09;;;;;;;0.43;0.43;;;;;;;4.48;100.00;100558.94;5074223;28;20215;-67
2023/12/16 00:41:35;;;;;;;0.50;0.50;;;;;;;4.46;100.00;100558.91;5073824;28;20282;-68
2023/12/16 00:44:03;;;;;;;0.63;0.63;;;;;;;4.45;100.00;100559.75;5073659;28;20192;-68
2023/12/16 00:46:31;;;;;;;0.50;0.50;;;;;;;4.47;100.00;100562.31;5073971;28;20618;-68
2023/12/16 00:48:58;;;;;;;0.50;0.50;;;;;;;4.32;100.00;100562.09;5073704;28;20196;-68
2023/12/16 00:51:24;;;;;;;0.50;0.50;;;;;;;4.30;100.00;100569.69;5075430;28;20215;-69
2023/12/16 00:53:51;;;;;;;0.50;0.50;;;;;;;4.29;100.00;100569.69;5074740;28;20203;-69
2023/12/16 00:56:18;;;;;;;0.50;0.50;;;;;;;4.35;100.00;100572.28;5073562;28;20215;-70
2023/12/16 00:58:44;;;;;;;0.60;0.60;;;;;;;4.39;100.00;100574.06;5076456;28;20204;-69
2023/12/16 01:01:15;;;;;;;0.50;0.50;;;;;;;4.36;100.00;100569.78;5073417;28;20258;-70
2023/12/16 01:03:42;;;;;;;0.70;0.70;;;;;;;4.25;100.00;100566.25;5073448;28;20667;-70
2023/12/16 01:06:08;;;;;;;0.50;0.50;;;;;;;4.34;100.00;100579.06;5073367;28;20196;-69
2023/12/16 01:08:35;;;;;;;0.70;0.70;;;;;;;4.36;100.00;100579.09;5073837;28;20212;-69
2023/12/16 01:11:02;;;;;;;0.40;0.40;;;;;;;4.33;100.00;100571.44;5072202;28;20200;-69
2023/12/16 01:13:29;;;;;;;0.50;0.50;;;;;;;4.32;100.00;100567.19;5074841;28;20192;-69
2023/12/16 01:15:56;;;;;;;0.50;0.50;;;;;;;4.24;100.00;100570.47;5073355;28;20192;-69
2023/12/16 01:18:24;;;;;;;0.60;0.60;;;;;;;4.26;100.00;100567.09;5073562;28;20208;-70
2023/12/16 01:20:51;;;;;;;0.50;0.50;;;;;;;4.30;100.00;100571.41;5074479;28;20208;-70
2023/12/16 01:23:18;;;;;;;0.50;0.50;;;;;;;4.31;100.00;100565.47;5072897;28;20196;-69
2023/12/16 01:25:45;;;;;;;0.60;0.60;;;;;;;4.33;100.00;100568.91;5073099;28;20699;-70
2023/12/16 01:28:12;;;;;;;0.50;0.50;;;;;;;4.34;100.00;100565.50;5073324;28;20200;-69
2023/12/16 01:30:39;;;;;;;0.50;0.50;;;;;;;4.29;100.00;100564.59;5073198;28;20192;-70
2023/12/16 01:33:05;;;;;;;0.50;0.50;;;;;;;4.33;100.00;100569.72;5073214;28;20195;-70
2023/12/16 01:35:33;;;;;;;0.60;0.60;;;;;;;4.34;100.00;100568.03;5073683;28;20257;-69
2023/12/16 01:38:00;;;;;;;0.50;0.50;;;;;;;4.35;100.00;100572.28;5072464;28;20703;-70
2023/12/16 01:40:27;;;;;;;0.50;0.50;;;;;;;4.30;100.00;100564.59;5072788;28;20200;-70
2023/12/16 01:42:55;;;;;;;0.50;0.50;;;;;;;4.36;100.00;100576.56;5073053;28;20624;-70
2023/12/16 01:45:21;;;;;;;1.23;1.13;;;;;;;4.35;100.00;100569.75;5073009;28;20232;-70
2023/12/16 01:47:48;;;;;;;0.50;0.50;;;;;;;4.36;100.00;100574.00;5072419;28;20200;-69
2023/12/16 01:50:16;;;;;;;0.60;0.60;;;;;;;4.37;100.00;100570.63;5073635;28;20634;-70
2023/12/16 01:52:45;;;;;;;0.57;0.57;;;;;;;4.37;100.00;100575.69;5072170;28;20207;-70
2023/12/16 01:55:12;;;;;;;0.60;0.60;;;;;;;4.36;100.00;100589.25;5075837;28;20196;-70
2023/12/16 01:57:40;;;;;;;0.60;0.60;;;;;;;4.34;100.00;100581.59;5072241;28;20216;-69
2023/12/16 02:00:09;;;;;;;0.83;0.83;;;;;;;4.33;100.00;100589.19;5072659;28;20196;-70
2023/12/16 02:02:36;;;;;;;0.60;0.60;;;;;;;4.31;100.00;100590.84;5072039;28;20207;-70
2023/12/16 02:05:03;;;;;;;0.60;0.60;;;;;;;4.27;100.00;100589.09;5070933;28;20568;-70
2023/12/16 02:07:29;;;;;;;0.60;0.60;;;;;;;4.26;100.00;100582.34;5072396;28;20192;-70
2023/12/16 02:09:58;;;;;;;0.50;0.50;;;;;;;4.29;100.00;100598.47;5074239;28;20254;-70
2023/12/16 02:12:27;;;;;;;0.50;0.50;;;;;;;4.29;100.00;100593.38;5072539;28;20199;-70
2023/12/16 02:14:54;;;;;;;0.67;0.67;;;;;;;4.27;100.00;100594.16;5072175;28;20215;-70
2023/12/16 02:17:20;;;;;;;0.50;0.50;;;;;;;4.17;100.00;100583.03;5072065;28;20234;-70
2023/12/16 02:19:48;;;;;;;0.67;0.67;;;;;;;4.28;100.00;100600.97;5072949;28;20680;-70
2023/12/16 02:22:15;;;;;;;0.70;0.70;;;;;;;4.28;100.00;100611.13;5071890;28;20192;-70
2023/12/16 02:24:43;;;;;;;0.67;0.67;;;;;;;4.27;100.00;100605.19;5071992;28;20634;-70
2023/12/16 02:27:09;;;;;;;0.50;0.50;;;;;;;4.27;100.00;100599.25;5070903;28;20192;-70
2023/12/16 02:29:36;;;;;;;0.53;0.53;;;;;;;4.28;100.00;100606.91;5073537;28;20626;-70
2023/12/16 02:32:03;;;;;;;0.40;0.40;;;;;;;4.27;100.00;100604.31;5074661;28;20192;-70
2023/12/16 02:34:30;;;;;;;0.60;0.60;;;;;;;4.25;100.00;100606.84;5071854;28;20200;-70
2023/12/16 02:36:57;;;;;;;0.70;0.70;;;;;;;4.16;100.00;100594.03;5072053;28;20218;-70
2023/12/16 02:39:24;;;;;;;0.93;0.93;;;;;;;4.24;100.00;100611.06;5072063;28;20196;-70
2023/12/16 02:41:52;;;;;;;0.50;0.50;;;;;;;4.23;100.00;100609.34;5071683;28;20208;-70
2023/12/16 02:44:18;;;;;;;0.60;0.60;;;;;;;4.22;100.00;100606.81;5071308;28;20330;-70
2023/12/16 02:46:45;;;;;;;0.70;0.70;;;;;;;4.16;100.00;100615.19;5073167;28;20196;-70
2023/12/16 02:49:12;;;;;;;0.60;0.60;;;;;;;4.13;100.00;100617.69;5072302;28;20211;-70
2023/12/16 02:51:39;;;;;;;1.03;1.03;;;;;;;4.09;100.00;100626.09;5071210;28;20281;-70
2023/12/16 02:54:05;;;;;;;0.87;0.87;;;;;;;4.09;100.00;100626.09;5072837;28;20250;-70
2023/12/16 02:56:32;;;;;;;0.73;0.73;;;;;;;4.04;100.00;100627.66;5071221;28;20249;-70
2023/12/16 02:59:00;;;;;;;0.50;0.50;;;;;;;3.94;100.00;100625.81;5071544;28;20204;-70
2023/12/16 03:01:27;;;;;;;0.50;0.50;;;;;;;3.98;100.00;100636.88;5071002;28;20250;-70
2023/12/16 03:03:54;;;;;;;0.50;0.50;;;;;;;3.97;100.00;100636.03;5073202;28;20200;-70
2023/12/16 03:06:20;;;;;;;0.80;0.80;;;;;;;3.99;100.00;100639.44;5072533;28;20628;-70
2023/12/16 03:08:47;;;;;;;0.40;0.40;;;;;;;3.95;100.00;100637.69;5073825;28;20203;-70
2023/12/16 03:11:14;;;;;;;0.57;0.57;;;;;;;3.94;100.00;100645.28;5068126;28;20622;-70
2023/12/16 03:13:41;;;;;;;0.70;0.70;;;;;;;3.94;100.00;100638.50;5071324;28;20202;-70
2023/12/16 03:16:11;;;;;;;0.80;0.80;;;;;;;3.90;100.00;100631.69;5071172;28;20671;-70
2023/12/16 03:18:38;;;;;;;0.50;0.50;;;;;;;3.88;100.00;100640.13;5069768;28;20220;-70
2023/12/16 03:21:07;;;;;;;1.67;1.57;;;;;;;3.89;100.00;100637.59;5074191;28;20196;-70
2023/12/16 03:23:33;;;;;;;0.50;0.50;;;;;;;3.91;100.00;100635.91;5070823;28;20204;-70
2023/12/16 03:26:00;;;;;;;0.50;0.50;;;;;;;3.87;100.00;100636.72;5068373;28;20196;-70
2023/12/16 03:28:27;;;;;;;0.60;0.60;;;;;;;3.79;100.00;100630.66;5072244;28;20254;-70
2023/12/16 03:30:54;;;;;;;0.60;0.60;;;;;;;3.93;100.00;100653.72;5071257;28;20196;-70
2023/12/16 03:33:22;;;;;;;0.50;0.50;;;;;;;3.92;100.00;100657.94;5070867;28;20665;-70
2023/12/16 03:35:49;;;;;;;0.70;0.70;;;;;;;3.89;100.00;100662.94;5070827;28;20200;-70
2023/12/16 03:38:16;;;;;;;0.70;0.70;;;;;;;3.87;100.00;100664.63;5067869;28;20794;-70
2023/12/16 03:40:43;;;;;;;0.60;0.60;;;;;;;3.89;100.00;100657.03;5070790;28;20226;-70
2023/12/16 03:43:09;;;;;;;1.33;1.33;;;;;;;3.87;100.00;100664.63;5071731;28;20196;-70
2023/12/16 03:45:36;;;;;;;0.60;0.60;;;;;;;3.85;100.00;100676.41;5070622;28;20741;-70
2023/12/16 03:48:03;;;;;;;0.60;0.60;;;;;;;3.85;100.00;100678.94;5073956;28;20250;-70
2023/12/16 03:50:31;;;;;;;0.50;0.50;;;;;;;3.82;100.00;100683.97;5071733;28;20630;-70
2023/12/16 03:52:58;;;;;;;0.57;0.57;;;;;;;3.66;100.00;100674.38;5070660;28;20208;-70
2023/12/16 03:55:25;;;;;;;0.60;0.60;;;;;;;3.76;100.00;100698.22;5070043;28;20203;-70
2023/12/16 03:57:51;;;;;;;0.50;0.50;;;;;;;3.74;100.00;100697.34;5070200;28;21323;-70
2023/12/16 04:00:18;;;;;;;0.70;0.70;;;;;;;3.76;100.00;100703.28;5070856;28;20277;-70
2023/12/16 04:02:45;;;;;;;0.70;0.70;;;;;;;3.77;100.00;100697.41;5070330;28;20287;-70
2023/12/16 04:05:12;;;;;;;0.80;0.80;;;;;;;3.73;100.00;100696.50;5072290;28;20261;-70
2023/12/16 04:07:41;;;;;;;1.00;1.00;;;;;;;3.71;100.00;100698.16;5071914;28;20195;-69
2023/12/16 04:10:09;;;;;;;0.77;0.77;;;;;;;3.58;100.00;100681.00;5071829;28;20737;-70
2023/12/16 04:12:36;;;;;;;0.50;0.50;;;;;;;3.69;100.00;100703.19;5070476;28;20194;-70
2023/12/16 04:15:03;;;;;;;0.70;0.70;;;;;;;3.67;100.00;100702.31;5067114;28;20250;-70
2023/12/16 04:17:30;;;;;;;0.73;0.73;;;;;;;3.64;100.00;100711.53;5070702;28;20277;-70
2023/12/16 04:19:57;;;;;;;0.40;0.40;;;;;;;3.60;100.00;100714.84;5071412;28;20704;-70
2023/12/16 04:22:24;;;;;;;0.60;0.60;;;;;;;3.56;100.00;100713.06;5070783;28;20261;-70
2023/12/16 04:24:57;;;;;;;0.60;0.60;;;;;;;3.52;100.00;100718.94;5070104;28;20200;-70
2023/12/16 04:27:24;;;;;;;0.70;0.70;;;;;;;3.48;100.00;100720.53;5069943;28;20196;-70
2023/12/16 04:29:51;;;;;;;0.67;0.67;;;;;;;3.48;100.00;100729.81;5072000;28;20195;-70
2023/12/16 04:32:19;;;;;;;0.80;0.80;;;;;;;3.44;100.00;100728.03;5070586;28;20234;-70
2023/12/16 04:34:46;;;;;;;1.00;1.00;;;;;;;3.42;100.00;100734.78;5070200;28;20204;-70
2023/12/16 04:37:12;;;;;;;0.60;0.60;;;;;;;3.40;100.00;100732.19;5069149;28;20588;-70
2023/12/16 04:39:39;;;;;;;0.50;0.50;;;;;;;3.43;100.00;100737.31;5071087;28;20250;-69
2023/12/16 04:42:09;;;;;;;0.50;0.50;;;;;;;3.45;100.00;100739.91;5071918;28;20256;-70
2023/12/16 04:44:37;;;;;;;0.60;0.60;;;;;;;3.44;100.00;100743.25;5070423;28;20584;-70
2023/12/16 04:47:04;;;;;;;0.50;0.50;;;;;;;3.34;100.00;100742.22;5070845;28;20257;-70
2023/12/16 04:49:31;;;;;;;0.60;0.60;;;;;;;3.39;100.00;100762.59;5072244;28;20204;-69
2023/12/16 04:51:58;;;;;;;0.70;0.70;;;;;;;3.36;100.00;100757.47;5070688;28;20751;-69
2023/12/16 04:54:24;;;;;;;0.50;0.50;;;;;;;3.35;100.00;100764.22;5071223;28;20200;-70
2023/12/16 04:56:51;;;;;;;0.70;0.70;;;;;;;3.36;100.00;100760.84;5070278;28;20634;-70
2023/12/16 04:59:19;;;;;;;0.50;0.50;;;;;;;3.36;100.00;100767.59;5069701;28;20220;-70
2023/12/16 05:01:46;;;;;;;0.77;0.77;;;;;;;3.36;100.00;100770.16;5066317;28;20273;-70
2023/12/16 05:04:12;;;;;;;0.83;0.83;;;;;;;3.37;100.00;100772.69;5070108;28;20192;-69
2023/12/16 05:06:39;;;;;;;0.70;0.70;;;;;;;3.37;100.00;100777.75;5070472;28;20192;-70
2023/12/16 05:09:10;;;;;;;0.50;0.50;;;;;;;3.36;100.00;100780.28;5073554;28;20199;-69
2023/12/16 05:11:37;;;;;;;0.63;0.63;;;;;;;3.30;100.00;100778.44;5073617;28;20192;-70
2023/12/16 05:14:04;;;;;;;0.70;0.70;;;;;;;3.28;100.00;100781.78;5073394;28;20218;-70
2023/12/16 05:16:32;;;;;;;0.50;0.50;;;;;;;3.28;100.00;100786.84;5076453;28;20624;-70
2023/12/16 05:19:00;;;;;;;0.53;0.53;;;;;;;3.33;100.00;100790.34;5074555;28;20708;-69
2023/12/16 05:21:27;;;;;;;1.10;1.10;;;;;;;3.33;100.00;100785.28;5073282;28;20596;-69
2023/12/16 05:23:54;;;;;;;0.60;0.60;;;;;;;3.30;100.00;100780.13;5073517;28;20322;-69
2023/12/16 05:26:21;;;;;;;0.50;0.50;;;;;;;3.27;100.00;100780.06;5073092;28;20836;-69
2023/12/16 05:28:48;;;;;;;0.50;0.50;;;;;;;3.26;100.00;100786.84;5077077;28;20200;-69
2023/12/16 05:31:15;;;;;;;0.60;0.60;;;;;;;3.17;100.00;100774.81;5073150;28;20199;-69
2023/12/16 05:33:44;;;;;;;0.77;0.77;;;;;;;3.25;100.00;100794.38;5073085;28;20285;-69
2023/12/16 05:36:11;;;;;;;0.50;0.50;;;;;;;3.25;100.00;100796.94;5073045;28;20292;-69
2023/12/16 05:38:38;;;;;;;0.90;0.90;;;;;;;3.23;100.00;100799.44;5072849;28;20211;-69
2023/12/16 05:41:05;;;;;;;0.50;0.50;;;;;;;3.17;100.00;100795.06;5074816;28;20273;-69
2023/12/16 05:43:32;;;;;;;0.70;0.70;;;;;;;3.13;100.00;100795.81;5073059;28;20265;-70
2023/12/16 05:45:59;;;;;;;0.77;0.77;;;;;;;3.05;100.00;100783.81;5073401;28;20684;-69
2023/12/16 05:48:26;;;;;;;0.50;0.50;;;;;;;3.03;100.00;100783.81;5072743;28;20200;-69
2023/12/16 05:50:54;;;;;;;0.50;0.50;;;;;;;3.12;100.00;100803.41;5073736;28;20228;-69
2023/12/16 05:53:21;;;;;;;1.23;1.23;;;;;;;3.07;100.00;100803.28;5074442;28;20196;-69
2023/12/16 05:55:49;;;;;;;1.57;1.57;;;;;;;2.93;100.00;100789.47;5072859;28;20581;-69
2023/12/16 05:58:16;;;;;;;0.50;0.50;;;;;;;2.84;100.00;100784.22;5074502;28;20595;-69
2023/12/16 06:00:43;;;;;;;0.50;0.50;;;;;;;3.01;100.00;100805.69;5085117;28;20192;-69
2023/12/16 06:03:09;;;;;;;0.70;0.70;;;;;;;3.02;100.00;100817.53;5082096;28;20272;-69
2023/12/16 06:05:36;;;;;;;5.43;0.90;;;;;;;3.02;100.00;100820.09;5073371;28;20192;-69
2023/12/16 06:08:05;;;;;;;0.60;0.60;;;;;;;3.01;100.00;100818.34;5072501;28;20192;-69
2023/12/16 06:10:32;;;;;;;0.53;0.53;;;;;;;3.05;100.00;100827.75;5072602;28;20287;-68
2023/12/16 06:13:06;;;;;;;0.50;0.50;;;;;;;3.07;100.00;100828.63;5073438;28;20199;-70
2023/12/16 06:15:33;;;;;;;0.70;0.70;;;;;;;3.02;100.00;100825.16;5076092;28;20210;-69
2023/12/16 06:18:03;;;;;;;0.50;0.50;;;;;;;3.16;100.00;100849.13;5071420;28;20212;-69
2023/12/16 06:20:30;;;;;;;0.60;0.60;;;;;;;3.20;100.00;100855.09;5071182;28;20630;-69
2023/12/16 06:22:57;;;;;;;0.90;0.90;;;;;;;3.20;100.00;100854.25;5071076;28;20281;-70
2023/12/16 06:25:25;;;;;;;0.70;0.70;;;;;;;3.21;100.00;100853.41;5073843;28;20200;-69
2023/12/16 06:27:52;;;;;;;0.50;0.50;;;;;;;3.24;100.00;100861.09;5071961;28;20192;-69
2023/12/16 06:30:18;;;;;;;0.67;0.67;;;;;;;3.23;100.00;100864.47;5072405;28;20250;-69
2023/12/16 06:32:45;;;;;;;0.60;0.60;;;;;;;3.25;100.00;100875.47;5072197;28;20203;-69
2023/12/16 06:35:12;;;;;;;0.87;0.87;;;;;;;3.25;100.00;100878.03;5072340;28;20200;-69
2023/12/16 06:37:39;;;;;;;0.87;0.87;;;;;;;3.23;100.00;100884.75;5074236;28;20204;-69
2023/12/16 06:40:07;;;;;;;0.53;0.53;;;;;;;3.30;100.00;100881.50;5072129;28;20676;-69
2023/12/16 06:42:35;;;;;;;0.90;0.90;;;;;;;3.30;100.00;100896.72;5072490;28;20247;-69
2023/12/16 06:45:02;;;;;;;0.50;0.50;;;;;;;3.29;100.00;100907.69;5070345;28;20200;-69
2023/12/16 06:47:29;;;;;;;0.67;0.67;;;;;;;3.31;100.00;100906.03;5074267;28;20592;-69
2023/12/16 06:49:55;;;;;;;0.87;0.87;;;;;;;3.30;100.00;100914.44;5075970;28;20196;-69
2023/12/16 06:52:22;;;;;;;0.63;0.63;;;;;;;3.32;100.00;100925.50;5076355;28;20227;-70
2023/12/16 06:54:49;;;;;;;0.80;0.80;;;;;;;3.37;100.00;100924.78;5071301;28;20200;-69
2023/12/16 06:57:16;;;;;;;0.70;0.70;;;;;;;3.37;100.00;100931.50;5071691;28;20192;-70
2023/12/16 06:59:44;;;;;;;0.80;0.80;;;;;;;3.38;100.00;100943.38;5071641;28;20269;-70
2023/12/16 07:02:11;;;;;;;1.47;1.27;;;;;;;3.43;100.00;100946.88;5071529;28;20212;-70
2023/12/16 07:04:37;;;;;;;1.00;1.00;;;;;;;3.43;100.00;100949.41;5071670;28;20579;-70
2023/12/16 07:07:04;;;;;;;1.80;1.43;;;;;;;3.41;100.00;100951.06;5071431;28;20207;-69
2023/12/16 07:09:31;;;;;;;1.07;1.07;;;;;;;3.37;100.00;100955.19;5075604;28;20192;-70
2023/12/16 07:11:58;;;;;;;0.50;0.50;;;;;;;3.38;100.00;100956.06;5073116;28;20254;-70
2023/12/16 07:14:27;;;;;;;0.70;0.70;;;;;;;3.40;100.00;100956.94;5071386;28;20261;-70
2023/12/16 07:16:56;;;;;;;1.00;1.00;;;;;;;3.41;100.00;100966.25;5071550;28;20204;-69
2023/12/16 07:19:22;;;;;;;1.33;1.33;;;;;;;3.40;100.00;100972.13;5071779;28;20219;-69
2023/12/16 07:21:49;;;;;;;0.90;0.90;;;;;;;3.41;100.00;100968.78;5071367;28;20253;-70
2023/12/16 07:24:16;;;;;;;0.60;0.60;;;;;;;3.42;100.00;100971.38;5073800;28;20561;-69
2023/12/16 07:26:42;;;;;;;0.53;0.53;;;;;;;3.42;100.00;100978.13;5071039;28;20309;-69
2023/12/16 07:29:09;;;;;;;0.97;0.97;;;;;;;3.41;100.00;100971.34;5073389;28;20203;-69
2023/12/16 07:31:36;;;;;;;1.20;1.20;;;;;;;3.45;100.00;100988.34;5070100;28;20680;-69
2023/12/16 07:34:04;;;;;;;0.90;0.90;;;;;;;3.47;100.00;100996.81;5070862;28;20204;-69
2023/12/16 07:36:31;;;;;;;0.70;0.70;;;;;;;3.42;100.00;100988.25;5075235;28;20204;-69
2023/12/16 07:38:58;;;;;;;1.00;1.00;;;;;;;3.47;100.00;100997.69;5070873;28;20634;-70
2023/12/16 07:41:25;;;;;;;0.93;0.93;;;;;;;3.42;100.00;101003.47;5070629;28;20216;-69
2023/12/16 07:43:53;;;;;;;0.83;0.83;;;;;;;3.42;100.00;101003.47;5068779;28;20307;-69
2023/12/16 07:46:24;;;;;;;1.10;1.10;;;;;;;3.43;100.00;101010.25;5068978;28;20270;-69
2023/12/16 07:48:51;;;;;;;0.70;0.70;;;;;;;3.37;100.00;100999.94;5071911;28;20235;-69
2023/12/16 07:51:24;;;;;;;1.13;1.13;;;;;;;3.43;100.00;101010.25;5070400;28;20703;-68
2023/12/16 07:53:51;;;;;;;1.23;1.23;;;;;;;3.41;100.00;101010.22;5065585;28;20203;-69
2023/12/16 07:56:22;;;;;;;1.10;1.10;;;;;;;3.37;100.00;101010.97;5073868;28;20204;-69
2023/12/16 07:58:49;;;;;;;1.57;1.57;;;;;;;3.40;100.00;101020.31;5069845;28;20223;-69
2023/12/16 08:01:17;;;;;;;0.83;0.83;;;;;;;3.41;100.00;101022.03;5070219;28;20648;-69
2023/12/16 08:03:44;;;;;;;1.80;1.00;;;;;;;3.35;100.00;101014.28;5069185;28;20676;-69
2023/12/16 08:06:10;;;;;;;0.50;0.50;;;;;;;3.40;100.00;101027.91;5066530;28;20253;-69
2023/12/16 08:08:39;;;;;;;1.03;1.03;;;;;;;3.42;100.00;101034.75;5075855;28;20199;-69
2023/12/16 08:11:06;;;;;;;0.90;0.90;;;;;;;3.40;100.00;101045.66;5068073;28;20211;-70
2023/12/16 08:13:33;;;;;;;1.27;1.17;;;;;;;3.38;100.00;101042.22;5070619;28;21005;-69
2023/12/16 08:16:00;;;;;;;0.77;0.77;;;;;;;3.23;100.00;101019.91;5065988;28;20208;-69
2023/12/16 08:18:27;;;;;;;1.10;1.10;;;;;;;3.34;100.00;101048.03;5069625;28;20220;-70
2023/12/16 08:20:54;;;;;;;1.60;1.60;;;;;;;3.36;100.00;101043.88;5072415;28;20204;-69
2023/12/16 08:23:21;;;;;;;1.33;1.33;;;;;;;3.38;100.00;101049.84;5070124;28;20204;-69
2023/12/16 08:25:49;;;;;;;0.60;0.60;;;;;;;3.40;100.00;101051.59;5068789;28;20687;-69
2023/12/16 08:28:17;;;;;;;0.50;0.50;;;;;;;3.42;100.00;101054.19;5070321;28;20269;-69
2023/12/16 08:30:44;;;;;;;0.60;0.60;;;;;;;3.41;100.00;101055.00;5070171;28;20665;-69
2023/12/16 08:33:11;;;;;;;0.70;0.70;;;;;;;3.38;100.00;101053.25;5069743;28;20200;-69
2023/12/16 08:35:38;;;;;;;1.17;1.17;;;;;;;3.47;100.00;101067.81;5071997;28;20200;-69
2023/12/16 08:38:05;;;;;;;0.80;0.80;;;;;;;3.52;100.00;101062.03;5070483;28;20638;-69
2023/12/16 08:40:32;;;;;;;0.80;0.80;;;;;;;3.57;100.00;101067.22;5065945;28;20224;-71
2023/12/16 08:43:00;;;;;;;1.17;1.17;;;;;;;3.60;100.00;101065.63;5069962;28;20204;-71
2023/12/16 08:45:27;;;;;;;0.73;0.73;;;;;;;3.63;100.00;101064.84;5068549;28;20266;-73
2023/12/16 08:47:53;;;;;;;0.90;0.90;;;;;;;3.64;100.00;101069.09;5072380;28;20631;-71
2023/12/16 08:50:22;;;;;;;0.60;0.60;;;;;;;3.63;100.00;101064.84;5070965;28;20257;-72
2023/12/16 08:52:49;;;;;;;1.17;1.17;;;;;;;3.64;100.00;101069.09;5072491;28;20215;-72
2023/12/16 08:55:16;;;;;;;0.70;0.70;;;;;;;3.65;100.00;101064.03;5070599;28;20211;-73
2023/12/16 08:57:42;;;;;;;0.87;0.87;;;;;;;3.67;100.00;101066.63;5072351;28;20204;-72
2023/12/16 09:00:11;;;;;;;0.60;0.60;;;;;;;3.70;100.00;101067.56;5069910;28;20270;-72
2023/12/16 09:02:39;;;;;;;0.93;0.93;;;;;;;3.70;100.00;101062.50;5071012;28;20204;-72
2023/12/16 09:05:07;;;;;;;1.30;1.30;;;;;;;3.73;100.00;101069.31;5070145;28;20251;-72
2023/12/16 09:07:34;;;;;;;0.60;0.60;;;;;;;3.72;100.00;101066.75;5071090;28;20637;-73
2023/12/16 09:10:00;;;;;;;0.80;0.80;;;;;;;3.70;100.00;101071.78;5068637;28;20262;-72
2023/12/16 09:12:27;;;;;;;0.63;0.63;;;;;;;3.71;100.00;101063.34;5069180;28;20265;-73
2023/12/16 09:14:54;;;;;;;0.50;0.50;;;;;;;3.66;100.00;101064.91;5071206;28;20249;-71
2023/12/16 09:17:22;;;;;;;1.20;1.20;;;;;;;3.65;100.00;101056.44;5072673;28;20261;-71
2023/12/16 09:19:48;;;;;;;0.80;0.80;;;;;;;3.60;100.00;101064.75;5071894;28;20655;-69
2023/12/16 09:22:16;;;;;;;0.60;0.60;;;;;;;3.58;100.00;101066.41;5069251;28;20196;-75
2023/12/16 09:24:43;;;;;;;0.70;0.70;;;;;;;3.55;100.00;101057.06;5071192;28;20670;-73
2023/12/16 09:27:10;;;;;;;0.70;0.70;;;;;;;3.57;100.00;101054.53;5072913;28;20200;-72
2023/12/16 09:29:36;;;;;;;1.17;1.17;;;;;;;3.57;100.00;101054.53;5072535;28;20192;-72
2023/12/16 09:32:03;;;;;;;0.93;0.93;;;;;;;3.49;100.00;101056.88;5073704;28;20200;-72
2023/12/16 09:34:31;;;;;;;1.27;1.27;;;;;;;3.47;100.00;101050.94;5073773;28;20203;-70
2023/12/16 09:36:58;;;;;;;0.77;0.77;;;;;;;3.48;100.00;101054.31;5073296;28;20200;-70
2023/12/16 09:39:24;;;;;;;0.83;0.83;;;;;;;3.46;100.00;101053.41;5074180;28;20212;-71
2023/12/16 09:41:52;;;;;;;1.00;1.00;;;;;;;3.50;100.00;101062.81;5075989;28;20218;-71
2023/12/16 09:44:20;;;;;;;0.80;0.80;;;;;;;3.51;100.00;101064.53;5073268;28;20204;-71
2023/12/16 09:46:48;;;;;;;0.67;0.67;;;;;;;3.43;100.00;101051.66;5075353;28;20306;-71
2023/12/16 09:49:16;;;;;;;3.90;2.75;;;;;;;3.42;100.00;101049.09;5072717;28;20524;-68
2023/12/16 09:51:44;;;;;;;1.53;1.53;;;;;;;3.53;100.00;101057.81;5072139;28;20637;-67
2023/12/16 09:54:10;;;;;;;0.73;0.73;;;;;;;3.54;100.00;101064.63;5071713;28;20203;-68
2023/12/16 09:56:39;;;;;;;1.20;1.20;;;;;;;3.54;100.00;101069.69;5073152;28;20208;-68
2023/12/16 09:59:09;;;;;;;0.70;0.70;;;;;;;3.50;100.00;101067.88;5072683;28;20311;-68
2023/12/16 10:01:35;;;;;;;1.20;1.20;;;;;;;3.52;100.00;101058.66;5073015;28;20192;-68
2023/12/16 10:04:02;;;;;;;1.67;1.60;;;;;;;3.45;100.00;101041.56;5072695;28;20580;-67
2023/12/16 10:06:29;;;;;;;0.60;0.60;;;;;;;3.54;100.00;101049.41;5072815;28;20192;-68
2023/12/16 10:08:57;;;;;;;0.73;0.73;;;;;;;3.57;100.00;101054.53;5070843;28;20664;-67
2023/12/16 10:11:24;;;;;;;1.00;1.00;;;;;;;3.59;100.00;101052.88;5072813;28;20206;-68
2023/12/16 10:13:55;;;;;;;1.60;1.53;;;;;;;3.54;100.00;101035.03;5072662;28;20653;-67
2023/12/16 10:16:23;;;;;;;0.80;0.80;;;;;;;3.48;100.00;101023.91;5072492;28;20198;-68
2023/12/16 10:18:52;;;;;;;1.40;1.30;;;;;;;3.56;100.00;101050.28;5072650;28;20664;-68
2023/12/16 10:21:21;;;;;;;0.60;0.60;;;;;;;3.54;100.00;101051.94;5072171;28;20199;-68
2023/12/16 10:23:48;;;;;;;0.60;0.60;;;;;;;3.47;100.00;101050.94;5072792;28;20577;-67
2023/12/16 10:26:17;;;;;;;0.50;0.50;;;;;;;3.49;100.00;101056.06;5072308;28;20265;-67
2023/12/16 10:28:46;;;;;;;1.47;1.47;;;;;;;3.45;100.00;101052.56;5072567;28;20229;-67
2023/12/16 10:31:13;;;;;;;1.03;1.03;;;;;;;3.41;100.00;101058.38;5072145;28;20214;-67
2023/12/16 10:33:40;;;;;;;1.03;1.03;;;;;;;3.29;100.00;101054.69;5072407;28;20261;-68
2023/12/16 10:36:08;;;;;;;0.60;0.60;;;;;;;3.27;100.00;101052.09;5072170;28;20257;-67
2023/12/16 10:38:34;;;;;;;0.93;0.90;;;;;;;3.25;100.00;101052.88;5072143;28;20279;-68
2023/12/16 10:41:01;;;;;;;1.07;1.07;;;;;;;3.20;100.00;101044.31;5071857;28;20639;-67
2023/12/16 10:43:29;;;;;;;0.70;0.70;;;;;;;3.20;100.00;101041.78;5072053;28;20696;-68
2023/12/16 10:46:00;;;;;;;0.57;0.57;;;;;;;3.22;100.00;101045.19;5072121;28;20664;-68
2023/12/16 10:48:32;;;;;;;0.57;0.57;;;;;;;3.22;100.00;101040.13;5071877;28;20200;-68
2023/12/16 10:51:01;;;;;;;0.97;0.97;;;;;;;3.26;100.00;101044.47;5071910;28;20277;-68
2023/12/16 10:53:37;;;;;;;0.70;0.70;;;;;;;3.27;100.00;101043.63;5071965;28;20204;-67
2023/12/16 10:56:11;;;;;;;0.70;0.70;;;;;;;3.29;100.00;101042.00;5071655;28;20256;-66
2023/12/16 10:58:48;;;;;;;0.67;0.67;;;;;;;3.29;100.00;101050.47;5071646;28;20225;-67
2023/12/16 11:01:18;;;;;;;0.83;0.83;;;;;;;3.36;100.00;101048.97;5071861;28;20277;-66
2023/12/16 11:04:01;;;;;;;1.33;1.33;;;;;;;3.37;100.00;101043.03;5071750;28;20296;-67
2023/12/16 11:06:34;;;;;;;0.50;0.50;;;;;;;3.32;100.00;101040.41;5070935;28;20210;-67
2023/12/16 11:09:03;;;;;;;0.87;0.87;;;;;;;3.29;100.00;101036.94;5071818;28;20196;-67
2023/12/16 11:11:31;;;;;;;0.80;0.80;;;;;;;3.39;100.00;101038.91;5071189;28;20207;-67
2023/12/16 11:14:00;;;;;;;0.60;0.60;;;;;;;3.38;100.00;101032.09;5071749;28;20593;-68
2023/12/16 11:16:34;;;;;;;0.70;0.70;;;;;;;3.50;100.00;101040.00;5071249;28;20199;-67
2023/12/16 11:19:03;;;;;;;0.60;0.60;;;;;;;3.49;100.00;101045.91;5071335;28;20242;-67
2023/12/16 11:21:31;;;;;;;1.23;1.23;;;;;;;3.52;100.00;101040.91;5071366;28;20675;-67
2023/12/16 11:24:01;;;;;;;0.97;0.97;;;;;;;3.49;100.00;101028.16;5071382;28;20286;-67
2023/12/16 11:26:30;;;;;;;0.87;0.87;;;;;;;3.48;100.00;101044.19;5069880;28;20642;-67